UAL1433 KLAX-KATL
Flight info
| Callsign | UAL1433 |
|---|---|
| Flight time | N/A |
| Altitude | 41000 |
| Route | DOTSS2 CLEEE DCT PKE DCT HIDAT DCT KA27O DCT NABOB J74 SJN J231 ACH DCT TCC J78 IRW J14 LIT J66 BEATS DCT RUSSA GLAVN2 |
| Aircraft | B772/H-SDE2E3FGHIJ5LORVWXY/LB1D1 |
Departure
| Time | 2026-04-23 19:17 |
|---|---|
| Airport | Los Angeles International Airport (KLAX) |
Arrival
| Time | N/A |
|---|---|
| Airport | Hartsfield Jackson Atlanta International Airport (KATL) |
| Time | Latitude | Longitude | Altitude | Speed | Heading |
|---|---|---|---|---|---|
| 2026-04-23 18:49 | 33.94177 | -118.41094 | 99 ft | 0 kts | 82° |
| 2026-04-23 18:50 | 33.94100 | -118.41079 | 98 ft | 0 kts | 83° |
| 2026-04-23 18:50 | 33.94021 | -118.41069 | 99 ft | 0 kts | 83° |
| 2026-04-23 19:05 | 33.94021 | -118.41070 | 118 ft | 1 kts | 83° |
| 2026-04-23 19:06 | 33.94020 | -118.41090 | 99 ft | 3 kts | 86° |
| 2026-04-23 19:06 | 33.94019 | -118.41114 | 99 ft | 3 kts | 90° |
| 2026-04-23 19:06 | 33.94019 | -118.41139 | 99 ft | 3 kts | 90° |
| 2026-04-23 19:06 | 33.94019 | -118.41163 | 99 ft | 3 kts | 77° |
| 2026-04-23 19:07 | 33.94014 | -118.41180 | 98 ft | 3 kts | 22° |
| 2026-04-23 19:07 | 33.94010 | -118.41182 | 99 ft | 0 kts | 353° |
| 2026-04-23 19:10 | 33.94014 | -118.41183 | 101 ft | 1 kts | 353° |
| 2026-04-23 19:10 | 33.94024 | -118.41184 | 100 ft | 3 kts | 353° |
| 2026-04-23 19:11 | 33.94067 | -118.41191 | 100 ft | 9 kts | 353° |
| 2026-04-23 19:11 | 33.94142 | -118.41202 | 100 ft | 13 kts | 353° |
| 2026-04-23 19:11 | 33.94243 | -118.41217 | 99 ft | 16 kts | 353° |
| 2026-04-23 19:11 | 33.94360 | -118.41235 | 99 ft | 18 kts | 352° |
| 2026-04-23 19:12 | 33.94478 | -118.41252 | 100 ft | 17 kts | 353° |
| 2026-04-23 19:12 | 33.94595 | -118.41269 | 100 ft | 17 kts | 353° |
| 2026-04-23 19:12 | 33.94712 | -118.41287 | 102 ft | 17 kts | 353° |
| 2026-04-23 19:12 | 33.94799 | -118.41225 | 107 ft | 17 kts | 78° |
| 2026-04-23 19:13 | 33.94814 | -118.41082 | 106 ft | 17 kts | 83° |
| 2026-04-23 19:13 | 33.94828 | -118.40941 | 107 ft | 17 kts | 83° |
| 2026-04-23 19:13 | 33.94842 | -118.40801 | 105 ft | 17 kts | 84° |
| 2026-04-23 19:13 | 33.94857 | -118.40660 | 104 ft | 17 kts | 82° |
| 2026-04-23 19:14 | 33.94871 | -118.40520 | 105 ft | 17 kts | 83° |
| 2026-04-23 19:14 | 33.94887 | -118.40379 | 104 ft | 17 kts | 82° |
| 2026-04-23 19:14 | 33.94900 | -118.40238 | 106 ft | 17 kts | 81° |
| 2026-04-23 19:14 | 33.94914 | -118.40097 | 104 ft | 17 kts | 84° |
| 2026-04-23 19:15 | 33.94931 | -118.39958 | 104 ft | 17 kts | 71° |
| 2026-04-23 19:15 | 33.95027 | -118.39932 | 110 ft | 17 kts | 312° |
| 2026-04-23 19:15 | 33.95037 | -118.39998 | 110 ft | 0 kts | 264° |
| 2026-04-23 19:16 | 33.95036 | -118.40001 | 110 ft | 6 kts | 264° |
| 2026-04-23 19:16 | 33.94992 | -118.40446 | 114 ft | 107 kts | 263° |
| 2026-04-23 19:16 | 33.94852 | -118.41710 | 165 ft | 196 kts | 262° |
| 2026-04-23 19:17 | 33.94440 | -118.45508 | 1698 ft | 246 kts | 262° |
| 2026-04-23 19:17 | 33.94279 | -118.47549 | 2611 ft | 245 kts | 266° |
| 2026-04-23 19:17 | 33.94163 | -118.49590 | 3492 ft | 245 kts | 267° |
| 2026-04-23 19:17 | 33.94050 | -118.51653 | 4249 ft | 250 kts | 266° |
| 2026-04-23 19:18 | 33.93918 | -118.53726 | 5172 ft | 244 kts | 266° |
| 2026-04-23 19:18 | 33.93797 | -118.55781 | 5935 ft | 248 kts | 267° |
| 2026-04-23 19:18 | 33.93688 | -118.57814 | 6806 ft | 243 kts | 268° |
| 2026-04-23 19:18 | 33.93533 | -118.59875 | 7251 ft | 256 kts | 266° |
| 2026-04-23 19:19 | 33.92791 | -118.62682 | 7703 ft | 276 kts | 232° |
| 2026-04-23 19:19 | 33.92143 | -118.63458 | 7981 ft | 281 kts | 217° |
| 2026-04-23 19:20 | 33.88304 | -118.64181 | 9174 ft | 293 kts | 178° |
| 2026-04-23 19:20 | 33.86251 | -118.63981 | 9778 ft | 298 kts | 179° |
| 2026-04-23 19:20 | 33.84197 | -118.63654 | 10282 ft | 305 kts | 166° |
| 2026-04-23 19:20 | 33.82259 | -118.62418 | 10415 ft | 327 kts | 148° |
| 2026-04-23 19:21 | 33.80338 | -118.60806 | 10600 ft | 345 kts | 147° |
| 2026-04-23 19:21 | 33.76272 | -118.57415 | 11797 ft | 364 kts | 148° |
| 2026-04-23 19:21 | 33.74168 | -118.55694 | 12679 ft | 367 kts | 149° |
| 2026-04-23 19:22 | 33.72042 | -118.53967 | 13596 ft | 372 kts | 150° |
| 2026-04-23 19:22 | 33.70042 | -118.51959 | 14219 ft | 384 kts | 132° |
| 2026-04-23 19:22 | 33.67837 | -118.46000 | 15584 ft | 400 kts | 109° |
| 2026-04-23 19:23 | 33.66952 | -118.42810 | 16357 ft | 405 kts | 110° |
| 2026-04-23 19:23 | 33.66026 | -118.39600 | 17185 ft | 409 kts | 111° |
| 2026-04-23 19:23 | 33.65073 | -118.36369 | 17990 ft | 413 kts | 111° |
| 2026-04-23 19:24 | 33.64250 | -118.29535 | 18979 ft | 425 kts | 89° |
| 2026-04-23 19:24 | 33.64310 | -118.25966 | 19569 ft | 430 kts | 88° |
| 2026-04-23 19:24 | 33.64428 | -118.18782 | 21020 ft | 433 kts | 89° |
| 2026-04-23 19:25 | 33.64468 | -118.11469 | 22223 ft | 443 kts | 90° |
| 2026-04-23 19:25 | 33.64464 | -118.04008 | 23453 ft | 451 kts | 90° |
| 2026-04-23 19:26 | 33.64450 | -117.96407 | 24503 ft | 460 kts | 90° |
| 2026-04-23 19:26 | 33.64442 | -117.92553 | 24985 ft | 465 kts | 91° |
| 2026-04-23 19:27 | 33.64425 | -117.84775 | 25978 ft | 473 kts | 91° |
| 2026-04-23 19:27 | 33.65395 | -117.72858 | 27298 ft | 489 kts | 76° |
| 2026-04-23 19:28 | 33.67123 | -117.64880 | 28255 ft | 498 kts | 75° |
| 2026-04-23 19:28 | 33.68808 | -117.56724 | 29204 ft | 508 kts | 77° |
| 2026-04-23 19:29 | 33.69613 | -117.52581 | 29686 ft | 512 kts | 77° |
| 2026-04-23 19:29 | 33.71207 | -117.44160 | 30540 ft | 521 kts | 77° |
| 2026-04-23 19:30 | 33.72816 | -117.35638 | 31405 ft | 525 kts | 77° |
| 2026-04-23 19:30 | 33.73628 | -117.31355 | 31861 ft | 527 kts | 77° |
| 2026-04-23 19:30 | 33.75192 | -117.22706 | 32706 ft | 531 kts | 83° |
| 2026-04-23 19:31 | 33.75368 | -117.18285 | 33072 ft | 531 kts | 94° |
| 2026-04-23 19:31 | 33.75175 | -117.13852 | 33467 ft | 532 kts | 96° |
| 2026-04-23 19:31 | 33.74935 | -117.09405 | 33838 ft | 535 kts | 96° |
| 2026-04-23 19:31 | 33.74752 | -117.04928 | 34164 ft | 538 kts | 95° |
| 2026-04-23 19:32 | 33.74642 | -117.00428 | 34461 ft | 540 kts | 94° |
| 2026-04-23 19:32 | 33.74561 | -116.95909 | 34743 ft | 542 kts | 94° |
| 2026-04-23 19:32 | 33.74474 | -116.91374 | 35012 ft | 544 kts | 94° |
| 2026-04-23 19:32 | 33.74376 | -116.86828 | 35304 ft | 545 kts | 94° |
| 2026-04-23 19:33 | 33.74271 | -116.82281 | 35659 ft | 544 kts | 94° |
| 2026-04-23 19:33 | 33.74162 | -116.77742 | 36050 ft | 543 kts | 94° |
| 2026-04-23 19:33 | 33.73942 | -116.68684 | 36770 ft | 542 kts | 94° |
| 2026-04-23 19:34 | 33.73830 | -116.64161 | 37119 ft | 542 kts | 94° |
| 2026-04-23 19:34 | 33.73718 | -116.59643 | 37454 ft | 541 kts | 94° |
| 2026-04-23 19:34 | 33.73489 | -116.50623 | 38118 ft | 540 kts | 94° |
| 2026-04-23 19:35 | 33.73373 | -116.46114 | 38439 ft | 540 kts | 94° |
| 2026-04-23 19:35 | 33.73253 | -116.41612 | 38762 ft | 540 kts | 94° |
| 2026-04-23 19:35 | 33.73135 | -116.37164 | 39015 ft | 539 kts | 94° |
| 2026-04-23 19:35 | 33.73014 | -116.32663 | 39244 ft | 539 kts | 94° |
| 2026-04-23 19:36 | 33.72892 | -116.28159 | 39452 ft | 540 kts | 94° |
| 2026-04-23 19:36 | 33.72767 | -116.23650 | 39659 ft | 540 kts | 94° |
| 2026-04-23 19:36 | 33.72640 | -116.19143 | 39862 ft | 541 kts | 95° |
| 2026-04-23 19:36 | 33.72512 | -116.14622 | 40075 ft | 541 kts | 95° |
| 2026-04-23 19:37 | 33.72385 | -116.10102 | 40274 ft | 542 kts | 93° |
| 2026-04-23 19:37 | 33.72601 | -116.05577 | 40443 ft | 545 kts | 79° |
| 2026-04-23 19:37 | 33.73617 | -116.01199 | 40580 ft | 545 kts | 71° |
| 2026-04-23 19:37 | 33.74870 | -115.96893 | 40737 ft | 546 kts | 69° |
| 2026-04-23 19:38 | 33.76181 | -115.92608 | 40907 ft | 547 kts | 69° |
| 2026-04-23 19:38 | 33.78771 | -115.83972 | 41010 ft | 552 kts | 70° |
| 2026-04-23 19:39 | 33.81238 | -115.75242 | 40995 ft | 548 kts | 71° |
| 2026-04-23 19:39 | 33.83607 | -115.66594 | 41006 ft | 544 kts | 71° |